createdAt,value
2022-09-21T00:01:31.832Z,27.20
2022-09-21T00:04:02.545Z,27.30
2022-09-21T00:06:33.273Z,27.20
2022-09-21T00:09:02.044Z,26.90
2022-09-21T00:11:32.430Z,27.00
2022-09-21T00:14:04.151Z,27.20
2022-09-21T00:16:32.567Z,27.10
2022-09-21T00:19:01.184Z,27.10
2022-09-21T00:21:29.569Z,27.00
2022-09-21T00:23:58.858Z,26.80
2022-09-21T00:26:28.665Z,26.80
2022-09-21T00:29:02.435Z,27.00
2022-09-21T00:31:31.620Z,27.10
2022-09-21T00:34:00.678Z,27.00
2022-09-21T00:36:29.343Z,26.80
2022-09-21T00:39:00.138Z,27.00
2022-09-21T00:41:31.655Z,27.10
2022-09-21T00:44:21.254Z,27.20
2022-09-21T00:46:51.880Z,27.30
2022-09-21T00:49:21.727Z,27.00
2022-09-21T00:51:50.768Z,26.90
2022-09-21T00:54:27.895Z,26.80
2022-09-21T00:56:57.492Z,27.10
2022-09-21T00:59:29.934Z,27.00
2022-09-21T01:01:59.591Z,26.80
2022-09-21T01:04:28.450Z,26.80
2022-09-21T01:07:00.606Z,27.00
2022-09-21T01:09:28.738Z,27.20
2022-09-21T01:12:09.649Z,27.20
2022-09-21T01:14:49.368Z,27.10
2022-09-21T01:17:23.634Z,26.80
2022-09-21T01:20:24.530Z,26.70
2022-09-21T01:23:11.222Z,26.90
2022-09-21T01:25:56.369Z,27.10
2022-09-21T01:28:30.841Z,26.90
2022-09-21T01:31:04.654Z,26.80
2022-09-21T01:33:48.704Z,27.10
2022-09-21T01:36:22.923Z,27.20
2022-09-21T01:38:55.233Z,27.20
2022-09-21T01:41:27.688Z,27.20
2022-09-21T01:44:03.669Z,26.80
2022-09-21T01:46:33.896Z,26.60
2022-09-21T01:49:10.490Z,26.80
2022-09-21T01:51:44.432Z,26.90
2022-09-21T01:54:18.672Z,26.90
2022-09-21T01:56:53.837Z,26.70
2022-09-21T01:59:31.511Z,26.80
2022-09-21T02:02:12.075Z,27.10
2022-09-21T02:04:40.368Z,27.00
2022-09-21T02:07:09.351Z,26.80
2022-09-21T02:09:38.196Z,26.70
2022-09-21T02:12:06.623Z,26.50
2022-09-21T02:14:37.124Z,26.30
2022-09-21T02:17:25.096Z,26.60
2022-09-21T02:20:17.397Z,26.90
2022-09-21T02:23:06.807Z,26.60
2022-09-21T02:25:50.982Z,26.40
2022-09-21T02:28:37.698Z,26.50
2022-09-21T02:31:33.204Z,26.70
2022-09-21T02:34:10.747Z,26.80
2022-09-21T02:37:01.348Z,26.80
2022-09-21T02:39:58.799Z,26.70
2022-09-21T02:42:34.460Z,26.30
2022-09-21T02:45:18.634Z,26.30
2022-09-21T02:47:54.215Z,26.70
2022-09-21T02:50:29.043Z,26.80
2022-09-21T02:52:58.761Z,26.50
2022-09-21T02:55:28.130Z,26.30
2022-09-21T02:57:57.574Z,26.50
2022-09-21T03:00:25.842Z,26.70
2022-09-21T03:02:54.001Z,26.90
2022-09-21T03:05:22.137Z,27.00
2022-09-21T03:07:50.389Z,26.80
2022-09-21T03:10:18.612Z,26.50
2022-09-21T03:12:46.618Z,26.40
2022-09-21T03:15:15.076Z,26.60
2022-09-21T03:17:43.299Z,26.80
2022-09-21T03:20:11.642Z,26.60
2022-09-21T03:22:39.817Z,26.40
2022-09-21T03:25:08.573Z,26.30
2022-09-21T03:27:36.855Z,26.60
2022-09-21T03:30:05.319Z,26.70
2022-09-21T03:32:33.582Z,26.70
2022-09-21T03:35:01.673Z,26.70
2022-09-21T03:37:29.762Z,26.70
2022-09-21T03:39:57.887Z,26.50
2022-09-21T03:42:25.996Z,26.40
2022-09-21T03:44:54.177Z,26.30
2022-09-21T03:47:22.303Z,26.50
2022-09-21T03:49:50.455Z,26.70
2022-09-21T03:52:18.564Z,26.60
2022-09-21T03:54:46.695Z,26.50
2022-09-21T03:57:14.991Z,26.50
2022-09-21T03:59:43.157Z,26.70
2022-09-21T04:02:11.337Z,26.90
2022-09-21T04:04:39.427Z,26.90
2022-09-21T04:07:07.493Z,26.90
2022-09-21T04:09:35.786Z,26.60
2022-09-21T04:12:04.159Z,26.50
2022-09-21T04:14:32.433Z,26.50
2022-09-21T04:17:00.742Z,26.70
2022-09-21T04:19:29.331Z,26.90
2022-09-21T04:21:57.574Z,26.70
2022-09-21T04:24:25.922Z,26.50
2022-09-21T04:26:54.004Z,26.10
2022-09-21T04:29:22.364Z,25.80
2022-09-21T04:31:50.399Z,25.50
2022-09-21T04:34:18.672Z,25.70
2022-09-21T04:36:46.671Z,25.60
2022-09-21T04:39:14.967Z,25.40
2022-09-21T04:41:43.139Z,25.20
2022-09-21T04:44:11.266Z,25.20
2022-09-21T04:46:39.527Z,25.50
2022-09-21T04:49:08.163Z,25.80
2022-09-21T04:51:36.354Z,25.70
2022-09-21T04:54:05.065Z,25.60
2022-09-21T04:56:33.431Z,25.50
2022-09-21T04:59:01.491Z,25.60
2022-09-21T05:01:30.374Z,25.70
2022-09-21T05:03:58.638Z,25.80
2022-09-21T05:06:26.756Z,25.90
2022-09-21T05:08:55.040Z,25.70
2022-09-21T05:11:23.061Z,25.70
2022-09-21T05:13:51.516Z,25.60
2022-09-21T05:16:19.852Z,25.60
2022-09-21T05:18:48.248Z,25.60
2022-09-21T05:21:16.617Z,25.90
2022-09-21T05:23:44.738Z,25.90
2022-09-21T05:26:12.945Z,25.70
2022-09-21T05:28:41.338Z,25.70
2022-09-21T05:31:18.794Z,25.70
2022-09-21T05:33:55.142Z,25.70
2022-09-21T05:36:32.390Z,25.90
2022-09-21T05:39:00.717Z,26.10
2022-09-21T05:41:29.023Z,26.10
2022-09-21T05:43:57.728Z,26.10
2022-09-21T05:47:14.794Z,26.00
2022-09-21T05:50:01.898Z,25.80
2022-09-21T05:52:59.174Z,25.80
2022-09-21T05:55:49.183Z,25.80
2022-09-21T05:58:44.670Z,25.90
2022-09-21T06:01:25.024Z,26.00
2022-09-21T06:03:54.605Z,26.10
2022-09-21T06:06:22.991Z,26.00
2022-09-21T06:08:51.299Z,25.90
2022-09-21T06:11:21.609Z,25.80
2022-09-21T06:13:50.035Z,25.90
2022-09-21T06:16:18.419Z,26.10
2022-09-21T06:18:46.680Z,26.10
2022-09-21T06:21:14.785Z,26.20
2022-09-21T06:23:43.013Z,26.30
2022-09-21T06:26:11.176Z,26.10
2022-09-21T06:28:39.342Z,26.00
2022-09-21T06:31:07.474Z,25.90
2022-09-21T06:33:35.658Z,25.90
2022-09-21T06:36:04.121Z,26.20
2022-09-21T06:38:32.402Z,26.30
2022-09-21T06:41:05.085Z,25.90
2022-09-21T06:43:33.871Z,25.50
2022-09-21T06:46:03.355Z,25.00
2022-09-21T06:48:33.606Z,25.20
2022-09-21T06:51:04.404Z,25.30
2022-09-21T06:53:34.596Z,25.40
2022-09-21T06:56:07.898Z,25.30
2022-09-21T06:58:36.990Z,25.10
2022-09-21T07:01:10.173Z,25.10
2022-09-21T07:03:40.129Z,25.10
2022-09-21T07:06:09.712Z,25.10
2022-09-21T07:11:26.385Z,25.40
2022-09-21T07:13:54.620Z,25.50
2022-09-21T07:16:23.133Z,25.50
2022-09-21T07:18:51.307Z,25.40
2022-09-21T07:21:19.430Z,25.40
2022-09-21T07:23:47.547Z,25.20
2022-09-21T07:26:15.900Z,25.30
2022-09-21T07:28:44.029Z,25.30
2022-09-21T07:31:15.238Z,25.50
2022-09-21T07:33:45.116Z,25.50
2022-09-21T07:36:13.312Z,25.60
2022-09-21T07:38:43.633Z,25.80
2022-09-21T07:41:13.715Z,25.60
2022-09-21T07:43:42.346Z,25.50
2022-09-21T07:46:15.360Z,25.30
2022-09-21T07:48:44.033Z,25.30
2022-09-21T07:51:14.880Z,25.20
2022-09-21T07:53:44.787Z,25.30
2022-09-21T07:56:18.335Z,25.50
2022-09-21T07:58:46.718Z,25.60
2022-09-21T08:01:15.198Z,25.60
2022-09-21T08:03:43.405Z,25.50
2022-09-21T08:06:11.684Z,25.50
2022-09-21T08:08:39.882Z,25.50
2022-09-21T08:11:08.578Z,25.50
2022-09-21T08:13:36.828Z,25.50
2022-09-21T08:16:05.128Z,25.50
2022-09-21T08:18:36.901Z,25.50
2022-09-21T08:21:05.087Z,25.60
2022-09-21T08:23:33.295Z,25.70
2022-09-21T08:26:06.636Z,25.70
2022-09-21T08:28:35.693Z,25.60
2022-09-21T08:31:09.180Z,25.50
2022-09-21T08:33:37.450Z,25.50
2022-09-21T08:36:05.840Z,25.50
2022-09-21T08:38:36.052Z,25.50
2022-09-21T08:41:16.286Z,25.70
2022-09-21T08:43:47.586Z,25.80
2022-09-21T08:46:22.741Z,25.70
2022-09-21T08:49:15.131Z,25.70
2022-09-21T08:51:55.171Z,25.40
2022-09-21T08:54:42.280Z,25.30
2022-09-21T08:57:15.007Z,25.20
2022-09-21T08:59:48.326Z,25.00
2022-09-21T09:02:31.782Z,25.10
2022-09-21T09:05:18.145Z,25.40
2022-09-21T09:07:55.871Z,25.50
2022-09-21T09:10:39.269Z,25.30
2022-09-21T09:13:10.583Z,25.30
2022-09-21T09:16:01.205Z,25.30
2022-09-21T09:18:47.202Z,25.30
2022-09-21T09:21:30.629Z,25.30
2022-09-21T09:24:22.558Z,25.30
2022-09-21T09:27:03.094Z,25.50
2022-09-21T09:30:02.014Z,25.60
2022-09-21T09:33:02.677Z,25.50
2022-09-21T09:35:49.573Z,25.60
2022-09-21T09:38:48.716Z,25.50
2022-09-21T09:41:54.093Z,25.50
2022-09-21T09:44:40.915Z,25.80
2022-09-21T09:47:47.829Z,25.90
2022-09-21T09:50:37.317Z,25.70
2022-09-21T09:53:18.312Z,25.60
2022-09-21T09:55:52.409Z,25.80
2022-09-21T09:58:21.936Z,25.90
2022-09-21T10:00:55.250Z,26.00
2022-09-21T10:03:28.835Z,26.10
2022-09-21T10:05:57.551Z,26.30
2022-09-21T10:08:30.182Z,26.00
2022-09-21T10:11:01.567Z,26.20
2022-09-21T10:13:35.092Z,26.50
2022-09-21T10:16:18.525Z,26.90
2022-09-21T10:18:49.921Z,27.10
2022-09-21T10:21:36.612Z,26.90
2022-09-21T10:24:20.408Z,26.80
2022-09-21T10:26:52.347Z,26.80
2022-09-21T10:29:40.410Z,27.10
2022-09-21T10:32:15.206Z,27.10
2022-09-21T10:35:02.591Z,27.20
2022-09-21T10:37:32.211Z,26.90
2022-09-21T10:40:01.081Z,26.70
2022-09-21T10:42:35.905Z,26.80
2022-09-21T10:45:22.264Z,26.90
2022-09-21T10:48:06.721Z,27.00
2022-09-21T10:50:41.260Z,27.10
2022-09-21T10:53:33.980Z,27.40
2022-09-21T10:56:22.616Z,27.50
2022-09-21T10:59:27.839Z,27.50
2022-09-21T11:02:00.171Z,27.60
2022-09-21T11:04:44.199Z,27.70
2022-09-21T11:07:44.544Z,27.60
2022-09-21T11:10:40.440Z,27.60
2022-09-21T11:13:46.215Z,27.60
2022-09-21T11:16:21.851Z,27.60
2022-09-21T11:19:16.977Z,27.70
2022-09-21T11:22:20.546Z,28.00
2022-09-21T11:25:19.426Z,28.20
2022-09-21T11:27:56.806Z,28.40
2022-09-21T11:30:25.404Z,28.30
2022-09-21T11:33:11.783Z,28.00
2022-09-21T11:36:03.748Z,27.70
2022-09-21T11:38:49.976Z,27.40
2022-09-21T11:41:36.531Z,27.50
2022-09-21T11:44:31.607Z,27.50
2022-09-21T11:47:37.378Z,27.80
2022-09-21T11:50:30.560Z,28.10
2022-09-21T11:53:29.421Z,28.20
2022-09-21T11:56:34.783Z,28.20
2022-09-21T11:59:21.700Z,28.20
2022-09-21T12:02:23.660Z,28.20
2022-09-21T12:05:03.001Z,28.30
2022-09-21T12:07:54.644Z,28.60
2022-09-21T12:11:09.500Z,28.70
2022-09-21T12:13:53.259Z,29.00
2022-09-21T12:16:40.323Z,29.10
2022-09-21T12:19:17.771Z,28.90
2022-09-21T12:21:53.482Z,28.80
2022-09-21T12:24:31.985Z,29.00
2022-09-21T12:27:11.107Z,29.10
2022-09-21T12:29:48.393Z,29.20
2022-09-21T12:32:16.660Z,29.10
2022-09-21T12:34:49.962Z,28.90
2022-09-21T12:37:24.144Z,28.30
2022-09-21T12:40:05.711Z,28.30
2022-09-21T12:42:51.792Z,28.80
2022-09-21T12:45:44.288Z,29.40
2022-09-21T12:48:45.032Z,29.70
2022-09-21T12:51:27.652Z,29.90
2022-09-21T12:53:59.804Z,30.10
2022-09-21T12:56:47.583Z,30.10
2022-09-21T12:59:31.010Z,29.90
2022-09-21T13:02:17.942Z,30.30
2022-09-21T13:04:49.504Z,30.70
2022-09-21T13:07:17.879Z,30.50
2022-09-21T13:09:47.364Z,29.80
2022-09-21T13:12:24.128Z,29.30
2022-09-21T13:15:00.039Z,29.20
2022-09-21T13:17:31.780Z,29.10
2022-09-21T13:20:00.033Z,29.20
2022-09-21T13:22:32.916Z,29.20
2022-09-21T13:25:15.820Z,29.00
2022-09-21T13:28:07.219Z,29.00
2022-09-21T13:30:44.333Z,28.60
2022-09-21T13:33:22.183Z,28.40
2022-09-21T13:36:01.135Z,28.50
2022-09-21T13:38:41.744Z,28.70
2022-09-21T13:41:19.317Z,28.80
2022-09-21T13:43:55.552Z,28.60
2022-09-21T13:46:36.463Z,28.80
2022-09-21T13:49:13.884Z,29.00
2022-09-21T13:52:04.035Z,29.20
2022-09-21T13:54:51.119Z,29.80
2022-09-21T13:57:32.880Z,29.90
2022-09-21T14:00:37.561Z,29.90
2022-09-21T14:03:24.122Z,29.50
2022-09-21T14:06:17.235Z,29.20
2022-09-21T14:08:51.642Z,29.20
2022-09-21T14:11:39.814Z,29.10
2022-09-21T14:14:12.626Z,28.90
2022-09-21T14:16:40.864Z,28.90
2022-09-21T14:19:18.453Z,28.90
2022-09-21T14:22:05.227Z,29.10
2022-09-21T14:24:43.544Z,29.20
2022-09-21T14:27:23.905Z,29.00
2022-09-21T14:29:57.154Z,28.80
2022-09-21T14:32:28.483Z,28.70
2022-09-21T14:35:03.035Z,28.50
2022-09-21T14:37:43.040Z,28.30
2022-09-21T14:40:23.741Z,28.30
2022-09-21T14:42:57.441Z,28.20
2022-09-21T14:45:45.143Z,28.10
2022-09-21T14:48:39.968Z,28.10
2022-09-21T14:51:34.973Z,28.00
2022-09-21T14:54:15.351Z,28.00
2022-09-21T14:56:55.782Z,28.20
2022-09-21T14:59:30.110Z,28.10
2022-09-21T15:02:26.961Z,28.00
2022-09-21T15:05:11.345Z,27.90
2022-09-21T15:08:05.532Z,28.20
2022-09-21T15:10:56.959Z,28.40
2022-09-21T15:14:02.216Z,28.60
2022-09-21T15:16:43.724Z,28.30
2022-09-21T15:19:19.792Z,28.50
2022-09-21T15:21:51.050Z,28.60
2022-09-21T15:24:32.496Z,28.70
2022-09-21T15:27:15.989Z,28.40
2022-09-21T15:29:50.783Z,28.30
2022-09-21T15:32:45.415Z,28.20
2022-09-21T15:35:28.004Z,28.30
2022-09-21T15:37:57.912Z,28.40
2022-09-21T15:40:33.711Z,28.60
2022-09-21T15:43:11.140Z,28.70
2022-09-21T15:46:01.643Z,28.40
2022-09-21T15:48:40.817Z,28.60
2022-09-21T15:51:16.966Z,29.00
2022-09-21T15:53:58.619Z,29.10
2022-09-21T15:56:29.465Z,29.20
2022-09-21T15:59:02.812Z,29.20
2022-09-21T16:01:31.449Z,29.00
2022-09-21T16:04:06.378Z,28.70
2022-09-21T16:06:40.414Z,28.80
2022-09-21T16:09:26.667Z,28.70
2022-09-21T16:11:55.570Z,28.80
2022-09-21T16:14:24.256Z,28.80
2022-09-21T16:17:10.565Z,28.80
2022-09-21T16:19:50.733Z,29.00
2022-09-21T16:22:24.357Z,28.80
2022-09-21T16:24:55.099Z,28.60
2022-09-21T16:27:29.991Z,28.50
2022-09-21T16:29:59.640Z,28.10
2022-09-21T16:32:34.705Z,28.00
2022-09-21T16:35:26.676Z,28.20
2022-09-21T16:37:55.310Z,28.20
2022-09-21T16:40:23.889Z,28.00
2022-09-21T16:42:52.303Z,27.50
2022-09-21T16:45:30.555Z,27.40
2022-09-21T16:47:59.717Z,27.50
2022-09-21T16:50:27.997Z,27.40
2022-09-21T16:52:56.320Z,27.30
2022-09-21T16:55:28.352Z,27.10
2022-09-21T16:57:57.575Z,26.90
2022-09-21T17:00:27.524Z,26.80
2022-09-21T17:02:55.723Z,26.80
2022-09-21T17:05:23.982Z,26.90
2022-09-21T17:07:56.238Z,27.00
2022-09-21T17:10:32.722Z,26.80
2022-09-21T17:13:01.258Z,26.50
2022-09-21T17:15:29.561Z,26.30
2022-09-21T17:17:57.751Z,26.40
2022-09-21T17:20:46.217Z,26.70
2022-09-21T17:23:14.440Z,26.80
2022-09-21T17:25:42.570Z,27.00
2022-09-21T17:28:18.505Z,27.10
2022-09-21T17:30:46.834Z,27.00
2022-09-21T17:33:15.011Z,27.00
2022-09-21T17:35:43.289Z,26.90
2022-09-21T17:38:14.608Z,27.00
2022-09-21T17:40:43.992Z,27.30
2022-09-21T17:43:18.622Z,27.30
2022-09-21T17:46:17.500Z,27.00
2022-09-21T17:48:46.409Z,26.60
2022-09-21T17:51:14.707Z,26.50
2022-09-21T17:53:43.416Z,26.50
2022-09-21T17:56:37.713Z,26.50
2022-09-21T17:59:07.035Z,26.50
2022-09-21T18:01:39.304Z,26.30
2022-09-21T18:04:10.460Z,26.10
2022-09-21T18:06:39.005Z,25.90
2022-09-21T18:09:07.815Z,25.90
2022-09-21T18:11:45.838Z,25.90
2022-09-21T18:14:29.370Z,26.10
2022-09-21T18:17:17.011Z,26.10
2022-09-21T18:20:03.768Z,26.00
2022-09-21T18:22:41.734Z,25.90
2022-09-21T18:25:17.365Z,25.80
2022-09-21T18:27:47.135Z,25.80
2022-09-21T18:30:15.922Z,25.90
2022-09-21T18:33:21.029Z,26.00
2022-09-21T18:35:55.472Z,26.00
2022-09-21T18:38:35.891Z,26.10
2022-09-21T18:41:07.104Z,26.00
2022-09-21T18:44:04.590Z,25.70
2022-09-21T18:47:01.220Z,25.60
2022-09-21T18:49:43.205Z,25.50
2022-09-21T18:52:25.050Z,25.50
2022-09-21T18:54:53.528Z,25.70
2022-09-21T18:57:21.875Z,26.00
2022-09-21T18:59:50.397Z,25.90
2022-09-21T19:04:17.125Z,25.70
2022-09-21T19:07:18.966Z,25.60
2022-09-21T19:10:05.829Z,25.70
2022-09-21T19:12:55.946Z,25.90
2022-09-21T19:16:01.805Z,25.90
2022-09-21T19:18:30.187Z,26.00
2022-09-21T19:21:19.694Z,25.70
2022-09-21T19:24:12.470Z,25.60
2022-09-21T19:26:49.677Z,25.60
2022-09-21T19:29:30.207Z,25.50
2022-09-21T19:31:58.697Z,25.50
2022-09-21T19:34:26.906Z,25.50
2022-09-21T19:36:55.364Z,25.60
2022-09-21T19:39:24.147Z,25.70
2022-09-21T19:42:17.282Z,25.60
2022-09-21T19:45:00.450Z,25.60
2022-09-21T19:47:30.220Z,25.50
2022-09-21T19:50:13.222Z,25.50
2022-09-21T19:52:41.875Z,25.30
2022-09-21T19:55:22.119Z,25.50
2022-09-21T19:57:50.614Z,25.70
2022-09-21T20:00:19.348Z,25.70
2022-09-21T20:02:56.382Z,25.80
2022-09-21T20:05:49.458Z,25.80
2022-09-21T20:08:36.000Z,25.60
2022-09-21T20:11:13.705Z,25.60
2022-09-21T20:13:50.821Z,25.50
2022-09-21T20:16:50.400Z,25.50
2022-09-21T20:19:37.277Z,25.40
2022-09-21T20:22:15.479Z,25.30
2022-09-21T20:24:58.868Z,25.50
2022-09-21T20:27:38.642Z,25.60
2022-09-21T20:30:10.786Z,25.60
2022-09-21T20:32:42.330Z,25.60
2022-09-21T20:35:22.519Z,25.60
2022-09-21T20:37:50.978Z,25.60
2022-09-21T20:40:20.010Z,25.60
2022-09-21T20:42:48.198Z,25.60
2022-09-21T20:45:16.736Z,25.70
2022-09-21T20:47:44.901Z,25.80
2022-09-21T20:50:13.039Z,25.90
2022-09-21T20:52:42.707Z,25.90
2022-09-21T20:55:13.615Z,26.00
2022-09-21T20:57:42.121Z,25.90
2022-09-21T21:00:16.365Z,25.80
2022-09-21T21:02:45.066Z,25.80
2022-09-21T21:05:13.250Z,25.80
2022-09-21T21:07:42.071Z,25.70
2022-09-21T21:10:11.412Z,25.70
2022-09-21T21:12:39.471Z,25.80
2022-09-21T21:15:08.384Z,25.90
2022-09-21T21:17:36.695Z,26.00
2022-09-21T21:20:06.282Z,25.90
2022-09-21T21:22:34.708Z,25.80
2022-09-21T21:25:03.042Z,25.70
2022-09-21T21:27:31.297Z,25.70
2022-09-21T21:29:59.476Z,25.70
2022-09-21T21:32:28.448Z,25.90
2022-09-21T21:34:56.853Z,26.20
2022-09-21T21:37:26.248Z,26.50
2022-09-21T21:39:55.543Z,26.60
2022-09-21T21:42:24.262Z,26.70
2022-09-21T21:44:52.583Z,26.70
2022-09-21T21:47:38.867Z,26.60
2022-09-21T21:50:08.059Z,26.30
2022-09-21T21:52:36.304Z,26.10
2022-09-21T21:55:05.608Z,26.10
2022-09-21T21:57:33.844Z,26.00
2022-09-21T22:00:02.427Z,25.90
2022-09-21T22:02:32.739Z,26.10
2022-09-21T22:05:01.215Z,26.50
2022-09-21T22:07:29.389Z,26.70
2022-09-21T22:09:57.690Z,26.40
2022-09-21T22:12:25.914Z,26.20
2022-09-21T22:14:54.057Z,26.10
2022-09-21T22:17:22.347Z,26.10
2022-09-21T22:19:50.424Z,26.00
2022-09-21T22:22:18.769Z,26.10
2022-09-21T22:24:46.986Z,26.30
2022-09-21T22:27:15.194Z,26.50
2022-09-21T22:29:43.585Z,26.60
2022-09-21T22:32:11.761Z,26.70
2022-09-21T22:34:39.956Z,26.70
2022-09-21T22:37:08.192Z,26.50
2022-09-21T22:39:36.533Z,26.40
2022-09-21T22:42:04.893Z,26.20
2022-09-21T22:44:33.054Z,26.10
2022-09-21T22:47:01.278Z,26.10
2022-09-21T22:49:29.377Z,26.10
2022-09-21T22:51:57.699Z,26.10
2022-09-21T22:54:25.885Z,26.50
2022-09-21T22:56:54.211Z,26.70
2022-09-21T22:59:22.595Z,26.40
2022-09-21T23:01:50.701Z,26.20
2022-09-21T23:04:19.444Z,26.10
2022-09-21T23:06:47.689Z,26.00
2022-09-21T23:09:21.970Z,26.00
2022-09-21T23:11:51.664Z,26.00
2022-09-21T23:14:20.416Z,26.20
2022-09-21T23:16:48.893Z,26.10
2022-09-21T23:19:17.182Z,25.80
2022-09-21T23:21:48.038Z,25.90
2022-09-21T23:24:16.613Z,26.00
2022-09-21T23:26:45.174Z,26.00
2022-09-21T23:29:15.231Z,25.70
2022-09-21T23:31:45.797Z,25.60
2022-09-21T23:34:15.586Z,25.50
2022-09-21T23:36:45.271Z,25.50
2022-09-21T23:39:15.606Z,25.50
2022-09-21T23:41:44.797Z,25.50
2022-09-21T23:44:13.422Z,25.70
2022-09-21T23:46:42.171Z,25.80
2022-09-21T23:49:10.715Z,25.90
2022-09-21T23:51:39.978Z,25.80
2022-09-21T23:54:08.847Z,25.70
2022-09-21T23:56:37.139Z,25.70
2022-09-21T23:59:05.407Z,25.70
